sensor_id;sensor_type;location;lat;lon;timestamp;P1;durP1;ratioP1;P2;durP2;ratioP2
46507;SDS011;32223;53.654;10.014;2022-11-15T00:01:53;40.90;;;21.48;;
46507;SDS011;32223;53.654;10.014;2022-11-15T00:04:19;39.78;;;21.90;;
46507;SDS011;32223;53.654;10.014;2022-11-15T00:06:44;41.83;;;19.83;;
46507;SDS011;32223;53.654;10.014;2022-11-15T00:09:10;35.33;;;21.02;;
46507;SDS011;32223;53.654;10.014;2022-11-15T00:11:36;39.10;;;20.08;;
46507;SDS011;32223;53.654;10.014;2022-11-15T00:14:01;36.78;;;21.80;;
46507;SDS011;32223;53.654;10.014;2022-11-15T00:16:27;34.25;;;20.25;;
46507;SDS011;32223;53.654;10.014;2022-11-15T00:18:53;38.60;;;19.17;;
46507;SDS011;32223;53.654;10.014;2022-11-15T00:21:18;36.05;;;19.98;;
46507;SDS011;32223;53.654;10.014;2022-11-15T00:23:44;41.08;;;22.73;;
46507;SDS011;32223;53.654;10.014;2022-11-15T00:26:11;39.95;;;21.42;;
46507;SDS011;32223;53.654;10.014;2022-11-15T00:28:38;38.97;;;19.33;;
46507;SDS011;32223;53.654;10.014;2022-11-15T00:31:04;37.08;;;19.75;;
46507;SDS011;32223;53.654;10.014;2022-11-15T00:33:32;41.38;;;19.73;;
46507;SDS011;32223;53.654;10.014;2022-11-15T00:36:05;41.20;;;20.73;;
46507;SDS011;32223;53.654;10.014;2022-11-15T00:38:34;37.60;;;20.13;;
46507;SDS011;32223;53.654;10.014;2022-11-15T00:41:01;40.75;;;20.55;;
46507;SDS011;32223;53.654;10.014;2022-11-15T00:43:28;38.60;;;21.30;;
46507;SDS011;32223;53.654;10.014;2022-11-15T00:45:54;40.75;;;21.02;;
46507;SDS011;32223;53.654;10.014;2022-11-15T00:48:19;41.70;;;23.00;;
46507;SDS011;32223;53.654;10.014;2022-11-15T00:50:45;41.28;;;21.20;;
46507;SDS011;32223;53.654;10.014;2022-11-15T00:53:11;40.80;;;21.63;;
46507;SDS011;32223;53.654;10.014;2022-11-15T00:55:36;39.78;;;20.73;;
46507;SDS011;32223;53.654;10.014;2022-11-15T00:58:02;43.17;;;21.80;;
46507;SDS011;32223;53.654;10.014;2022-11-15T01:00:28;45.47;;;23.80;;
46507;SDS011;32223;53.654;10.014;2022-11-15T01:02:53;43.25;;;21.35;;
46507;SDS011;32223;53.654;10.014;2022-11-15T01:05:19;43.22;;;21.33;;
46507;SDS011;32223;53.654;10.014;2022-11-15T01:07:44;38.03;;;20.33;;
46507;SDS011;32223;53.654;10.014;2022-11-15T01:10:10;42.13;;;21.75;;
46507;SDS011;32223;53.654;10.014;2022-11-15T01:12:36;39.45;;;21.08;;
46507;SDS011;32223;53.654;10.014;2022-11-15T01:15:02;44.13;;;22.33;;
46507;SDS011;32223;53.654;10.014;2022-11-15T01:17:29;39.10;;;20.55;;
46507;SDS011;32223;53.654;10.014;2022-11-15T01:19:55;42.63;;;23.23;;
46507;SDS011;32223;53.654;10.014;2022-11-15T01:22:21;39.42;;;21.17;;
46507;SDS011;32223;53.654;10.014;2022-11-15T01:24:46;36.22;;;20.65;;
46507;SDS011;32223;53.654;10.014;2022-11-15T01:27:13;35.08;;;18.70;;
46507;SDS011;32223;53.654;10.014;2022-11-15T01:29:39;39.95;;;20.40;;
46507;SDS011;32223;53.654;10.014;2022-11-15T01:32:05;35.45;;;19.35;;
46507;SDS011;32223;53.654;10.014;2022-11-15T01:34:31;34.13;;;19.02;;
46507;SDS011;32223;53.654;10.014;2022-11-15T01:36:56;42.28;;;18.52;;
46507;SDS011;32223;53.654;10.014;2022-11-15T01:39:22;34.67;;;18.73;;
46507;SDS011;32223;53.654;10.014;2022-11-15T01:41:47;35.80;;;19.58;;
46507;SDS011;32223;53.654;10.014;2022-11-15T01:47:01;31.85;;;18.45;;
46507;SDS011;32223;53.654;10.014;2022-11-15T01:49:32;32.55;;;18.77;;
46507;SDS011;32223;53.654;10.014;2022-11-15T01:52:00;29.08;;;17.45;;
46507;SDS011;32223;53.654;10.014;2022-11-15T01:54:28;28.05;;;16.90;;
46507;SDS011;32223;53.654;10.014;2022-11-15T01:56:56;36.30;;;17.52;;
46507;SDS011;32223;53.654;10.014;2022-11-15T01:59:26;34.33;;;18.05;;
46507;SDS011;32223;53.654;10.014;2022-11-15T02:01:53;31.30;;;17.17;;
46507;SDS011;32223;53.654;10.014;2022-11-15T02:04:28;29.80;;;18.15;;
46507;SDS011;32223;53.654;10.014;2022-11-15T02:06:56;30.77;;;17.85;;
46507;SDS011;32223;53.654;10.014;2022-11-15T02:09:22;33.08;;;17.65;;
46507;SDS011;32223;53.654;10.014;2022-11-15T02:11:48;32.15;;;17.88;;
46507;SDS011;32223;53.654;10.014;2022-11-15T02:14:15;27.08;;;15.55;;
46507;SDS011;32223;53.654;10.014;2022-11-15T02:19:27;29.90;;;15.45;;
46507;SDS011;32223;53.654;10.014;2022-11-15T02:22:01;24.42;;;14.30;;
46507;SDS011;32223;53.654;10.014;2022-11-15T02:24:54;30.42;;;16.83;;
46507;SDS011;32223;53.654;10.014;2022-11-15T02:27:53;31.40;;;17.35;;
46507;SDS011;32223;53.654;10.014;2022-11-15T02:31:00;31.42;;;16.83;;
46507;SDS011;32223;53.654;10.014;2022-11-15T02:33:42;31.52;;;17.15;;
46507;SDS011;32223;53.654;10.014;2022-11-15T02:41:46;30.65;;;17.23;;
46507;SDS011;32223;53.654;10.014;2022-11-15T02:44:23;29.42;;;16.73;;
46507;SDS011;32223;53.654;10.014;2022-11-15T02:47:03;26.27;;;15.27;;
46507;SDS011;32223;53.654;10.014;2022-11-15T02:49:48;28.75;;;16.65;;
46507;SDS011;32223;53.654;10.014;2022-11-15T02:52:17;31.38;;;16.95;;
46507;SDS011;32223;53.654;10.014;2022-11-15T02:54:58;29.50;;;16.33;;
46507;SDS011;32223;53.654;10.014;2022-11-15T02:57:36;32.65;;;17.77;;
46507;SDS011;32223;53.654;10.014;2022-11-15T03:07:11;32.42;;;16.65;;
46507;SDS011;32223;53.654;10.014;2022-11-15T03:09:44;29.95;;;16.77;;
46507;SDS011;32223;53.654;10.014;2022-11-15T03:15:26;28.35;;;15.00;;
46507;SDS011;32223;53.654;10.014;2022-11-15T03:17:58;29.80;;;15.43;;
46507;SDS011;32223;53.654;10.014;2022-11-15T03:20:28;29.13;;;16.38;;
46507;SDS011;32223;53.654;10.014;2022-11-15T03:22:55;30.58;;;16.20;;
46507;SDS011;32223;53.654;10.014;2022-11-15T03:25:26;28.42;;;15.13;;
46507;SDS011;32223;53.654;10.014;2022-11-15T03:27:55;30.85;;;15.88;;
46507;SDS011;32223;53.654;10.014;2022-11-15T03:30:23;31.55;;;16.05;;
46507;SDS011;32223;53.654;10.014;2022-11-15T03:32:51;29.60;;;16.65;;
46507;SDS011;32223;53.654;10.014;2022-11-15T03:35:20;30.33;;;16.67;;
46507;SDS011;32223;53.654;10.014;2022-11-15T03:37:55;31.08;;;16.35;;
46507;SDS011;32223;53.654;10.014;2022-11-15T03:40:34;27.80;;;16.08;;
46507;SDS011;32223;53.654;10.014;2022-11-15T03:45:56;25.20;;;14.48;;
46507;SDS011;32223;53.654;10.014;2022-11-15T03:48:27;27.08;;;14.43;;
46507;SDS011;32223;53.654;10.014;2022-11-15T03:50:58;31.70;;;16.60;;
46507;SDS011;32223;53.654;10.014;2022-11-15T03:53:24;30.38;;;15.70;;
46507;SDS011;32223;53.654;10.014;2022-11-15T03:55:50;29.20;;;15.70;;
46507;SDS011;32223;53.654;10.014;2022-11-15T03:58:16;24.95;;;14.57;;
46507;SDS011;32223;53.654;10.014;2022-11-15T04:00:41;31.60;;;16.52;;
46507;SDS011;32223;53.654;10.014;2022-11-15T04:03:07;30.27;;;15.52;;
46507;SDS011;32223;53.654;10.014;2022-11-15T04:05:33;27.92;;;15.13;;
46507;SDS011;32223;53.654;10.014;2022-11-15T04:07:58;33.13;;;15.55;;
46507;SDS011;32223;53.654;10.014;2022-11-15T04:10:24;27.38;;;15.98;;
46507;SDS011;32223;53.654;10.014;2022-11-15T04:12:50;30.25;;;16.67;;
46507;SDS011;32223;53.654;10.014;2022-11-15T04:15:16;29.85;;;17.20;;
46507;SDS011;32223;53.654;10.014;2022-11-15T04:17:47;35.47;;;20.92;;
46507;SDS011;32223;53.654;10.014;2022-11-15T04:23:02;25.90;;;15.00;;
46507;SDS011;32223;53.654;10.014;2022-11-15T04:25:52;28.17;;;16.17;;
46507;SDS011;32223;53.654;10.014;2022-11-15T04:28:19;26.60;;;15.20;;
46507;SDS011;32223;53.654;10.014;2022-11-15T04:30:44;25.20;;;14.40;;
46507;SDS011;32223;53.654;10.014;2022-11-15T04:33:10;27.90;;;14.80;;
46507;SDS011;32223;53.654;10.014;2022-11-15T04:35:36;28.55;;;16.40;;
46507;SDS011;32223;53.654;10.014;2022-11-15T04:38:02;27.13;;;15.70;;
46507;SDS011;32223;53.654;10.014;2022-11-15T04:40:29;26.80;;;14.35;;
46507;SDS011;32223;53.654;10.014;2022-11-15T04:42:55;26.85;;;15.57;;
46507;SDS011;32223;53.654;10.014;2022-11-15T04:45:21;25.27;;;13.65;;
46507;SDS011;32223;53.654;10.014;2022-11-15T04:47:47;24.55;;;13.43;;
46507;SDS011;32223;53.654;10.014;2022-11-15T04:50:13;22.48;;;13.73;;
46507;SDS011;32223;53.654;10.014;2022-11-15T04:52:40;26.98;;;15.23;;
46507;SDS011;32223;53.654;10.014;2022-11-15T04:55:08;22.48;;;13.52;;
46507;SDS011;32223;53.654;10.014;2022-11-15T04:57:35;24.88;;;13.57;;
46507;SDS011;32223;53.654;10.014;2022-11-15T05:00:01;25.63;;;15.10;;
46507;SDS011;32223;53.654;10.014;2022-11-15T05:02:31;25.00;;;14.75;;
46507;SDS011;32223;53.654;10.014;2022-11-15T05:05:16;23.55;;;15.75;;
46507;SDS011;32223;53.654;10.014;2022-11-15T05:07:42;22.05;;;13.38;;
46507;SDS011;32223;53.654;10.014;2022-11-15T05:10:08;23.55;;;13.27;;
46507;SDS011;32223;53.654;10.014;2022-11-15T05:12:34;26.45;;;14.35;;
46507;SDS011;32223;53.654;10.014;2022-11-15T05:14:59;23.85;;;14.88;;
46507;SDS011;32223;53.654;10.014;2022-11-15T05:17:25;27.98;;;15.90;;
46507;SDS011;32223;53.654;10.014;2022-11-15T05:19:51;25.33;;;14.35;;
46507;SDS011;32223;53.654;10.014;2022-11-15T05:22:17;29.90;;;15.63;;
46507;SDS011;32223;53.654;10.014;2022-11-15T05:24:43;25.30;;;14.85;;
46507;SDS011;32223;53.654;10.014;2022-11-15T05:27:09;28.27;;;14.65;;
46507;SDS011;32223;53.654;10.014;2022-11-15T05:29:35;26.33;;;14.50;;
46507;SDS011;32223;53.654;10.014;2022-11-15T05:32:00;23.45;;;14.70;;
46507;SDS011;32223;53.654;10.014;2022-11-15T05:34:27;25.30;;;14.05;;
46507;SDS011;32223;53.654;10.014;2022-11-15T05:36:53;25.98;;;14.02;;
46507;SDS011;32223;53.654;10.014;2022-11-15T05:39:19;22.85;;;13.63;;
46507;SDS011;32223;53.654;10.014;2022-11-15T05:41:50;27.00;;;14.40;;
46507;SDS011;32223;53.654;10.014;2022-11-15T05:44:21;28.05;;;14.98;;
46507;SDS011;32223;53.654;10.014;2022-11-15T05:46:49;23.15;;;14.15;;
46507;SDS011;32223;53.654;10.014;2022-11-15T05:49:18;31.13;;;15.55;;
46507;SDS011;32223;53.654;10.014;2022-11-15T05:51:46;25.98;;;16.48;;
46507;SDS011;32223;53.654;10.014;2022-11-15T05:54:14;30.98;;;15.15;;
46507;SDS011;32223;53.654;10.014;2022-11-15T05:56:41;29.23;;;15.48;;
46507;SDS011;32223;53.654;10.014;2022-11-15T05:59:07;27.88;;;14.85;;
46507;SDS011;32223;53.654;10.014;2022-11-15T06:01:34;28.95;;;15.63;;
46507;SDS011;32223;53.654;10.014;2022-11-15T06:04:00;28.33;;;15.85;;
46507;SDS011;32223;53.654;10.014;2022-11-15T06:06:27;25.73;;;14.95;;
46507;SDS011;32223;53.654;10.014;2022-11-15T06:08:53;26.50;;;14.88;;
46507;SDS011;32223;53.654;10.014;2022-11-15T06:11:18;30.50;;;17.00;;
46507;SDS011;32223;53.654;10.014;2022-11-15T06:13:44;31.23;;;16.90;;
46507;SDS011;32223;53.654;10.014;2022-11-15T06:16:10;28.40;;;15.40;;
46507;SDS011;32223;53.654;10.014;2022-11-15T06:18:35;28.58;;;16.52;;
46507;SDS011;32223;53.654;10.014;2022-11-15T06:21:01;30.90;;;16.40;;
46507;SDS011;32223;53.654;10.014;2022-11-15T06:23:27;27.17;;;14.77;;
46507;SDS011;32223;53.654;10.014;2022-11-15T06:25:57;30.55;;;16.10;;
46507;SDS011;32223;53.654;10.014;2022-11-15T06:28:24;28.30;;;15.02;;
46507;SDS011;32223;53.654;10.014;2022-11-15T06:30:50;29.23;;;15.50;;
46507;SDS011;32223;53.654;10.014;2022-11-15T06:33:15;31.95;;;17.90;;
46507;SDS011;32223;53.654;10.014;2022-11-15T06:35:41;28.55;;;15.68;;
46507;SDS011;32223;53.654;10.014;2022-11-15T06:38:08;29.63;;;16.88;;
46507;SDS011;32223;53.654;10.014;2022-11-15T06:40:35;30.90;;;14.70;;
46507;SDS011;32223;53.654;10.014;2022-11-15T06:43:03;28.35;;;16.60;;
46507;SDS011;32223;53.654;10.014;2022-11-15T06:48:31;29.48;;;17.58;;
46507;SDS011;32223;53.654;10.014;2022-11-15T06:50:59;23.55;;;14.88;;
46507;SDS011;32223;53.654;10.014;2022-11-15T06:53:26;28.42;;;16.50;;
46507;SDS011;32223;53.654;10.014;2022-11-15T06:55:52;30.00;;;15.88;;
46507;SDS011;32223;53.654;10.014;2022-11-15T06:58:20;25.55;;;15.88;;
46507;SDS011;32223;53.654;10.014;2022-11-15T07:00:46;26.80;;;14.52;;
46507;SDS011;32223;53.654;10.014;2022-11-15T07:03:12;28.83;;;16.23;;
46507;SDS011;32223;53.654;10.014;2022-11-15T07:05:38;27.20;;;16.05;;
46507;SDS011;32223;53.654;10.014;2022-11-15T07:08:04;30.75;;;15.43;;
46507;SDS011;32223;53.654;10.014;2022-11-15T07:10:29;31.27;;;15.85;;
46507;SDS011;32223;53.654;10.014;2022-11-15T07:12:55;31.30;;;15.45;;
46507;SDS011;32223;53.654;10.014;2022-11-15T07:15:22;29.70;;;15.98;;
46507;SDS011;32223;53.654;10.014;2022-11-15T07:17:49;30.80;;;17.25;;
46507;SDS011;32223;53.654;10.014;2022-11-15T07:20:15;31.42;;;16.05;;
46507;SDS011;32223;53.654;10.014;2022-11-15T07:22:41;32.30;;;16.20;;
46507;SDS011;32223;53.654;10.014;2022-11-15T07:25:07;28.98;;;15.30;;
46507;SDS011;32223;53.654;10.014;2022-11-15T07:27:34;24.42;;;16.00;;
46507;SDS011;32223;53.654;10.014;2022-11-15T07:29:59;28.65;;;15.63;;
46507;SDS011;32223;53.654;10.014;2022-11-15T07:32:25;23.35;;;14.27;;
46507;SDS011;32223;53.654;10.014;2022-11-15T07:34:51;27.55;;;15.60;;
46507;SDS011;32223;53.654;10.014;2022-11-15T07:37:17;22.98;;;13.90;;
46507;SDS011;32223;53.654;10.014;2022-11-15T07:39:43;25.58;;;15.57;;
46507;SDS011;32223;53.654;10.014;2022-11-15T07:42:09;25.67;;;13.50;;
46507;SDS011;32223;53.654;10.014;2022-11-15T07:44:53;28.33;;;15.32;;
46507;SDS011;32223;53.654;10.014;2022-11-15T07:47:19;23.17;;;13.93;;
46507;SDS011;32223;53.654;10.014;2022-11-15T07:49:45;25.90;;;14.93;;
46507;SDS011;32223;53.654;10.014;2022-11-15T07:52:11;24.67;;;14.80;;
46507;SDS011;32223;53.654;10.014;2022-11-15T07:54:38;27.85;;;14.73;;
46507;SDS011;32223;53.654;10.014;2022-11-15T07:57:04;25.92;;;15.52;;
46507;SDS011;32223;53.654;10.014;2022-11-15T07:59:29;26.60;;;14.38;;
46507;SDS011;32223;53.654;10.014;2022-11-15T08:01:55;21.67;;;12.93;;
46507;SDS011;32223;53.654;10.014;2022-11-15T08:04:21;21.15;;;12.57;;
46507;SDS011;32223;53.654;10.014;2022-11-15T08:06:46;26.08;;;15.57;;
46507;SDS011;32223;53.654;10.014;2022-11-15T08:09:12;21.45;;;13.07;;
46507;SDS011;32223;53.654;10.014;2022-11-15T08:11:38;22.80;;;13.10;;
46507;SDS011;32223;53.654;10.014;2022-11-15T08:14:04;21.95;;;13.15;;
46507;SDS011;32223;53.654;10.014;2022-11-15T08:16:30;23.55;;;13.45;;
46507;SDS011;32223;53.654;10.014;2022-11-15T08:18:55;22.13;;;12.70;;
46507;SDS011;32223;53.654;10.014;2022-11-15T08:21:21;20.17;;;13.20;;
46507;SDS011;32223;53.654;10.014;2022-11-15T08:23:47;22.55;;;12.75;;
46507;SDS011;32223;53.654;10.014;2022-11-15T08:26:13;22.23;;;14.10;;
46507;SDS011;32223;53.654;10.014;2022-11-15T08:28:39;23.52;;;14.18;;
46507;SDS011;32223;53.654;10.014;2022-11-15T08:31:05;24.75;;;13.63;;
46507;SDS011;32223;53.654;10.014;2022-11-15T08:33:31;21.02;;;13.43;;
46507;SDS011;32223;53.654;10.014;2022-11-15T08:35:58;19.85;;;12.63;;
46507;SDS011;32223;53.654;10.014;2022-11-15T08:38:25;21.02;;;12.65;;
46507;SDS011;32223;53.654;10.014;2022-11-15T08:40:53;23.80;;;13.10;;
46507;SDS011;32223;53.654;10.014;2022-11-15T08:43:28;19.45;;;12.73;;
46507;SDS011;32223;53.654;10.014;2022-11-15T08:45:57;24.83;;;13.27;;
46507;SDS011;32223;53.654;10.014;2022-11-15T08:48:23;25.40;;;12.55;;
46507;SDS011;32223;53.654;10.014;2022-11-15T08:50:52;18.33;;;12.13;;
46507;SDS011;32223;53.654;10.014;2022-11-15T08:53:22;23.25;;;13.82;;
46507;SDS011;32223;53.654;10.014;2022-11-15T08:55:47;21.80;;;13.30;;
46507;SDS011;32223;53.654;10.014;2022-11-15T08:58:13;24.55;;;12.90;;
46507;SDS011;32223;53.654;10.014;2022-11-15T09:00:38;23.05;;;13.82;;
46507;SDS011;32223;53.654;10.014;2022-11-15T09:03:05;22.48;;;12.68;;
46507;SDS011;32223;53.654;10.014;2022-11-15T09:05:31;20.90;;;13.07;;
46507;SDS011;32223;53.654;10.014;2022-11-15T09:07:57;19.15;;;12.30;;
46507;SDS011;32223;53.654;10.014;2022-11-15T09:10:22;19.23;;;12.63;;
46507;SDS011;32223;53.654;10.014;2022-11-15T09:12:49;19.75;;;12.60;;
46507;SDS011;32223;53.654;10.014;2022-11-15T09:15:15;18.02;;;11.82;;
46507;SDS011;32223;53.654;10.014;2022-11-15T09:17:41;22.35;;;12.70;;
46507;SDS011;32223;53.654;10.014;2022-11-15T09:20:07;17.88;;;11.45;;
46507;SDS011;32223;53.654;10.014;2022-11-15T09:22:34;20.30;;;12.30;;
46507;SDS011;32223;53.654;10.014;2022-11-15T09:25:02;19.30;;;11.98;;
46507;SDS011;32223;53.654;10.014;2022-11-15T09:27:28;17.80;;;11.60;;
46507;SDS011;32223;53.654;10.014;2022-11-15T09:29:54;17.35;;;11.82;;
46507;SDS011;32223;53.654;10.014;2022-11-15T09:32:22;18.85;;;11.82;;
46507;SDS011;32223;53.654;10.014;2022-11-15T09:34:48;17.27;;;11.35;;
46507;SDS011;32223;53.654;10.014;2022-11-15T09:37:14;22.30;;;12.63;;
46507;SDS011;32223;53.654;10.014;2022-11-15T09:39:40;19.88;;;11.60;;
46507;SDS011;32223;53.654;10.014;2022-11-15T09:49:34;19.02;;;12.07;;
46507;SDS011;32223;53.654;10.014;2022-11-15T09:52:00;19.05;;;11.15;;
46507;SDS011;32223;53.654;10.014;2022-11-15T09:54:34;19.05;;;10.65;;
46507;SDS011;32223;53.654;10.014;2022-11-15T09:57:12;17.52;;;10.98;;
46507;SDS011;32223;53.654;10.014;2022-11-15T10:04:40;20.85;;;10.63;;
46507;SDS011;32223;53.654;10.014;2022-11-15T10:07:14;17.80;;;11.35;;
46507;SDS011;32223;53.654;10.014;2022-11-15T10:09:47;18.83;;;10.43;;
46507;SDS011;32223;53.654;10.014;2022-11-15T10:12:39;18.77;;;11.40;;
46507;SDS011;32223;53.654;10.014;2022-11-15T10:15:12;16.38;;;10.57;;
46507;SDS011;32223;53.654;10.014;2022-11-15T10:20:31;16.77;;;10.05;;
46507;SDS011;32223;53.654;10.014;2022-11-15T10:23:07;21.45;;;10.82;;
46507;SDS011;32223;53.654;10.014;2022-11-15T10:25:38;16.33;;;11.32;;
46507;SDS011;32223;53.654;10.014;2022-11-15T10:30:39;16.88;;;11.02;;
46507;SDS011;32223;53.654;10.014;2022-11-15T10:36:13;15.82;;;9.57;;
46507;SDS011;32223;53.654;10.014;2022-11-15T10:38:51;14.95;;;10.15;;
46507;SDS011;32223;53.654;10.014;2022-11-15T10:43:45;18.67;;;10.38;;
46507;SDS011;32223;53.654;10.014;2022-11-15T10:46:31;15.80;;;9.45;;
46507;SDS011;32223;53.654;10.014;2022-11-15T10:52:27;17.77;;;10.05;;
46507;SDS011;32223;53.654;10.014;2022-11-15T10:54:45;14.23;;;8.70;;
46507;SDS011;32223;53.654;10.014;2022-11-15T10:57:23;17.35;;;9.27;;
46507;SDS011;32223;53.654;10.014;2022-11-15T10:59:56;15.98;;;10.48;;
46507;SDS011;32223;53.654;10.014;2022-11-15T11:02:38;16.67;;;10.20;;
46507;SDS011;32223;53.654;10.014;2022-11-15T11:05:39;13.45;;;9.77;;
46507;SDS011;32223;53.654;10.014;2022-11-15T11:10:59;12.48;;;8.57;;
46507;SDS011;32223;53.654;10.014;2022-11-15T11:13:27;14.57;;;9.38;;
46507;SDS011;32223;53.654;10.014;2022-11-15T11:18:48;12.98;;;9.00;;
46507;SDS011;32223;53.654;10.014;2022-11-15T11:35:41;15.57;;;8.60;;
46507;SDS011;32223;53.654;10.014;2022-11-15T11:41:26;12.63;;;7.78;;
46507;SDS011;32223;53.654;10.014;2022-11-15T11:46:42;11.35;;;8.00;;
46507;SDS011;32223;53.654;10.014;2022-11-15T11:52:26;11.52;;;7.85;;
46507;SDS011;32223;53.654;10.014;2022-11-15T11:57:52;10.73;;;7.38;;
46507;SDS011;32223;53.654;10.014;2022-11-15T12:00:22;15.60;;;8.95;;
46507;SDS011;32223;53.654;10.014;2022-11-15T12:02:52;12.60;;;7.68;;
46507;SDS011;32223;53.654;10.014;2022-11-15T12:05:35;13.20;;;8.25;;
46507;SDS011;32223;53.654;10.014;2022-11-15T12:17:07;14.68;;;7.82;;
46507;SDS011;32223;53.654;10.014;2022-11-15T12:19:35;13.77;;;8.18;;
46507;SDS011;32223;53.654;10.014;2022-11-15T12:22:12;11.95;;;7.90;;
46507;SDS011;32223;53.654;10.014;2022-11-15T12:25:05;12.23;;;7.47;;
46507;SDS011;32223;53.654;10.014;2022-11-15T12:27:54;11.20;;;6.93;;
46507;SDS011;32223;53.654;10.014;2022-11-15T12:30:23;10.30;;;7.18;;
46507;SDS011;32223;53.654;10.014;2022-11-15T12:32:57;14.88;;;6.82;;
46507;SDS011;32223;53.654;10.014;2022-11-15T12:35:34;10.95;;;6.80;;
46507;SDS011;32223;53.654;10.014;2022-11-15T12:38:09;10.73;;;7.13;;
46507;SDS011;32223;53.654;10.014;2022-11-15T12:40:39;11.63;;;7.05;;
46507;SDS011;32223;53.654;10.014;2022-11-15T12:43:48;10.32;;;6.72;;
46507;SDS011;32223;53.654;10.014;2022-11-15T12:49:10;11.20;;;6.78;;
46507;SDS011;32223;53.654;10.014;2022-11-15T13:02:18;11.73;;;7.13;;
46507;SDS011;32223;53.654;10.014;2022-11-15T13:04:47;11.27;;;5.53;;
46507;SDS011;32223;53.654;10.014;2022-11-15T13:10:29;8.80;;;6.10;;
46507;SDS011;32223;53.654;10.014;2022-11-15T13:12:59;9.70;;;6.72;;
46507;SDS011;32223;53.654;10.014;2022-11-15T13:15:40;8.80;;;6.10;;
46507;SDS011;32223;53.654;10.014;2022-11-15T13:23:54;8.07;;;4.93;;
46507;SDS011;32223;53.654;10.014;2022-11-15T13:26:20;10.68;;;6.82;;
46507;SDS011;32223;53.654;10.014;2022-11-15T13:28:47;8.25;;;5.75;;
46507;SDS011;32223;53.654;10.014;2022-11-15T13:31:22;8.30;;;6.35;;
46507;SDS011;32223;53.654;10.014;2022-11-15T13:34:00;8.82;;;5.93;;
46507;SDS011;32223;53.654;10.014;2022-11-15T13:36:29;11.10;;;6.18;;
46507;SDS011;32223;53.654;10.014;2022-11-15T13:39:02;12.55;;;6.00;;
46507;SDS011;32223;53.654;10.014;2022-11-15T13:41:30;9.65;;;6.20;;
46507;SDS011;32223;53.654;10.014;2022-11-15T13:43:58;9.23;;;5.75;;
46507;SDS011;32223;53.654;10.014;2022-11-15T13:46:25;9.57;;;5.78;;
46507;SDS011;32223;53.654;10.014;2022-11-15T13:49:05;9.18;;;5.20;;
46507;SDS011;32223;53.654;10.014;2022-11-15T13:51:46;8.93;;;5.72;;
46507;SDS011;32223;53.654;10.014;2022-11-15T13:54:29;9.35;;;6.00;;
46507;SDS011;32223;53.654;10.014;2022-11-15T13:57:01;12.68;;;6.22;;
46507;SDS011;32223;53.654;10.014;2022-11-15T14:01:57;14.00;;;5.85;;
46507;SDS011;32223;53.654;10.014;2022-11-15T14:04:26;11.02;;;6.28;;
46507;SDS011;32223;53.654;10.014;2022-11-15T14:06:59;9.45;;;5.18;;
46507;SDS011;32223;53.654;10.014;2022-11-15T14:09:31;8.27;;;4.88;;
46507;SDS011;32223;53.654;10.014;2022-11-15T14:11:59;6.38;;;4.75;;
46507;SDS011;32223;53.654;10.014;2022-11-15T14:14:27;7.97;;;5.55;;
46507;SDS011;32223;53.654;10.014;2022-11-15T14:16:55;10.57;;;6.95;;
46507;SDS011;32223;53.654;10.014;2022-11-15T14:27:32;9.70;;;5.50;;
46507;SDS011;32223;53.654;10.014;2022-11-15T14:29:58;10.55;;;6.32;;
46507;SDS011;32223;53.654;10.014;2022-11-15T14:32:26;11.57;;;6.13;;
46507;SDS011;32223;53.654;10.014;2022-11-15T14:34:59;10.55;;;6.50;;
46507;SDS011;32223;53.654;10.014;2022-11-15T14:37:33;12.02;;;6.95;;
46507;SDS011;32223;53.654;10.014;2022-11-15T14:40:00;9.27;;;6.20;;
46507;SDS011;32223;53.654;10.014;2022-11-15T14:42:29;8.02;;;6.00;;
46507;SDS011;32223;53.654;10.014;2022-11-15T14:44:55;10.77;;;7.22;;
46507;SDS011;32223;53.654;10.014;2022-11-15T14:47:20;10.30;;;5.95;;
46507;SDS011;32223;53.654;10.014;2022-11-15T14:49:46;10.88;;;6.57;;
46507;SDS011;32223;53.654;10.014;2022-11-15T14:52:28;12.30;;;7.60;;
46507;SDS011;32223;53.654;10.014;2022-11-15T14:59:49;9.75;;;6.20;;
46507;SDS011;32223;53.654;10.014;2022-11-15T15:02:19;9.00;;;5.97;;
46507;SDS011;32223;53.654;10.014;2022-11-15T15:04:46;12.02;;;6.22;;
46507;SDS011;32223;53.654;10.014;2022-11-15T15:07:12;11.20;;;6.78;;
46507;SDS011;32223;53.654;10.014;2022-11-15T15:09:37;10.95;;;5.85;;
46507;SDS011;32223;53.654;10.014;2022-11-15T15:12:03;9.90;;;6.00;;
46507;SDS011;32223;53.654;10.014;2022-11-15T15:14:35;8.10;;;5.63;;
46507;SDS011;32223;53.654;10.014;2022-11-15T15:17:01;8.77;;;6.63;;
46507;SDS011;32223;53.654;10.014;2022-11-15T15:19:26;9.38;;;6.35;;
46507;SDS011;32223;53.654;10.014;2022-11-15T15:21:52;14.48;;;6.25;;
46507;SDS011;32223;53.654;10.014;2022-11-15T15:24:18;8.63;;;5.80;;
46507;SDS011;32223;53.654;10.014;2022-11-15T15:26:43;9.05;;;6.05;;
46507;SDS011;32223;53.654;10.014;2022-11-15T15:29:09;9.48;;;6.35;;
46507;SDS011;32223;53.654;10.014;2022-11-15T15:31:53;9.90;;;6.35;;
46507;SDS011;32223;53.654;10.014;2022-11-15T15:34:18;11.23;;;6.88;;
46507;SDS011;32223;53.654;10.014;2022-11-15T15:39:49;12.48;;;6.60;;
46507;SDS011;32223;53.654;10.014;2022-11-15T15:42:16;14.57;;;7.20;;
46507;SDS011;32223;53.654;10.014;2022-11-15T15:44:41;10.05;;;6.45;;
46507;SDS011;32223;53.654;10.014;2022-11-15T15:47:10;9.20;;;6.63;;
46507;SDS011;32223;53.654;10.014;2022-11-15T15:49:40;11.30;;;6.68;;
46507;SDS011;32223;53.654;10.014;2022-11-15T15:52:06;10.52;;;7.03;;
46507;SDS011;32223;53.654;10.014;2022-11-15T15:54:32;12.77;;;6.82;;
46507;SDS011;32223;53.654;10.014;2022-11-15T15:56:57;10.02;;;6.63;;
46507;SDS011;32223;53.654;10.014;2022-11-15T15:59:23;14.70;;;7.60;;
46507;SDS011;32223;53.654;10.014;2022-11-15T16:01:49;13.00;;;7.43;;
46507;SDS011;32223;53.654;10.014;2022-11-15T16:04:14;11.23;;;7.10;;
46507;SDS011;32223;53.654;10.014;2022-11-15T16:06:42;14.27;;;7.72;;
46507;SDS011;32223;53.654;10.014;2022-11-15T16:09:18;13.25;;;7.07;;
46507;SDS011;32223;53.654;10.014;2022-11-15T16:12:04;11.18;;;6.32;;
46507;SDS011;32223;53.654;10.014;2022-11-15T16:14:30;9.75;;;6.78;;
46507;SDS011;32223;53.654;10.014;2022-11-15T16:16:56;9.52;;;6.43;;
46507;SDS011;32223;53.654;10.014;2022-11-15T16:19:22;11.68;;;7.25;;
46507;SDS011;32223;53.654;10.014;2022-11-15T16:21:48;10.52;;;6.72;;
46507;SDS011;32223;53.654;10.014;2022-11-15T16:24:16;11.30;;;7.50;;
46507;SDS011;32223;53.654;10.014;2022-11-15T16:26:43;13.30;;;7.97;;
46507;SDS011;32223;53.654;10.014;2022-11-15T16:29:09;11.90;;;7.38;;
46507;SDS011;32223;53.654;10.014;2022-11-15T16:31:35;13.68;;;7.85;;
46507;SDS011;32223;53.654;10.014;2022-11-15T16:34:01;12.45;;;7.63;;
46507;SDS011;32223;53.654;10.014;2022-11-15T16:36:27;13.10;;;7.97;;
46507;SDS011;32223;53.654;10.014;2022-11-15T16:38:56;9.40;;;6.55;;
46507;SDS011;32223;53.654;10.014;2022-11-15T16:41:22;12.25;;;7.35;;
46507;SDS011;32223;53.654;10.014;2022-11-15T16:43:47;12.80;;;7.63;;